createdAt,value
2023-05-14T00:00:53.500Z,95992
2023-05-14T00:01:53.614Z,95987
2023-05-14T00:02:53.640Z,95985
2023-05-14T00:03:53.642Z,95989
2023-05-14T00:05:53.581Z,95985
2023-05-14T00:06:53.516Z,95984
2023-05-14T00:08:53.498Z,95987
2023-05-14T00:09:53.518Z,95987
2023-05-14T00:11:53.597Z,95984
2023-05-14T00:12:53.534Z,95984
2023-05-14T00:13:53.563Z,95989
2023-05-14T00:14:53.587Z,95989
2023-05-14T00:15:53.652Z,95983
2023-05-14T00:16:53.577Z,95986
2023-05-14T00:17:53.618Z,95986
2023-05-14T00:18:53.608Z,95986
2023-05-14T00:19:53.569Z,95986
2023-05-14T00:20:53.550Z,95985
2023-05-14T00:21:53.601Z,95982
2023-05-14T00:22:53.589Z,95981
2023-05-14T00:25:53.551Z,95982
2023-05-14T00:26:53.570Z,95979
2023-05-14T00:27:53.581Z,95983
2023-05-14T00:28:53.596Z,95979
2023-05-14T00:29:53.588Z,95981
2023-05-14T00:31:53.719Z,95983
2023-05-14T00:32:53.665Z,95978
2023-05-14T00:33:53.569Z,95981
2023-05-14T00:34:53.626Z,95978
2023-05-14T00:35:53.586Z,95980
2023-05-14T00:37:53.623Z,95980
2023-05-14T00:38:53.599Z,95980
2023-05-14T00:40:53.656Z,95978
2023-05-14T00:41:53.630Z,95974
2023-05-14T00:42:53.659Z,95979
2023-05-14T00:44:53.650Z,95975
2023-05-14T00:45:53.643Z,95973
2023-05-14T00:48:53.690Z,95974
2023-05-14T00:51:53.612Z,95971
2023-05-14T00:52:53.671Z,95976
2023-05-14T00:53:53.672Z,95975
2023-05-14T00:55:53.710Z,95977
2023-05-14T00:56:53.681Z,95975
2023-05-14T00:57:53.653Z,95977
2023-05-14T00:58:53.675Z,95978
2023-05-14T00:59:53.663Z,95977
2023-05-14T01:00:53.736Z,95980
2023-05-14T01:02:53.794Z,95981
2023-05-14T01:03:53.809Z,95982
2023-05-14T01:04:53.679Z,95981
2023-05-14T01:06:53.722Z,95979
2023-05-14T01:07:53.642Z,95979
2023-05-14T01:08:53.709Z,95982
2023-05-14T01:11:53.695Z,95980
2023-05-14T01:12:53.691Z,95980
2023-05-14T01:15:53.716Z,95975
2023-05-14T01:16:53.809Z,95973
2023-05-14T01:18:53.740Z,95972
2023-05-14T01:20:53.680Z,95975
2023-05-14T01:21:53.739Z,95974
2023-05-14T01:22:53.767Z,95974
2023-05-14T01:23:53.713Z,95976
2023-05-14T01:24:53.767Z,95975
2023-05-14T01:25:53.716Z,95973
2023-05-14T01:27:53.780Z,95974
2023-05-14T01:28:53.748Z,95973
2023-05-14T01:30:53.729Z,95970
2023-05-14T01:32:53.821Z,95970
2023-05-14T01:35:53.777Z,95968
2023-05-14T01:36:53.788Z,95970
2023-05-14T01:37:53.800Z,95967
2023-05-14T01:38:53.743Z,95967
2023-05-14T01:39:53.792Z,95966
2023-05-14T01:40:53.774Z,95967
2023-05-14T01:41:53.792Z,95963
2023-05-14T01:42:53.826Z,95961
2023-05-14T01:43:53.723Z,95961
2023-05-14T01:44:53.790Z,95962
2023-05-14T01:45:53.752Z,95962
2023-05-14T01:47:53.895Z,95962
2023-05-14T01:48:53.729Z,95962
2023-05-14T01:52:53.821Z,95964
2023-05-14T01:53:53.840Z,95963
2023-05-14T01:54:53.822Z,95963
2023-05-14T01:55:53.820Z,95961
2023-05-14T01:56:53.760Z,95961
2023-05-14T01:57:53.840Z,95962
2023-05-14T01:58:53.828Z,95959
2023-05-14T01:59:53.788Z,95959
2023-05-14T02:00:53.829Z,95961
2023-05-14T02:01:53.981Z,95960
2023-05-14T02:05:53.862Z,95958
2023-05-14T02:06:53.838Z,95955
2023-05-14T02:07:53.873Z,95959
2023-05-14T02:10:53.833Z,95960
2023-05-14T02:11:53.877Z,95961
2023-05-14T02:13:53.847Z,95959
2023-05-14T02:14:53.888Z,95960
2023-05-14T02:17:53.883Z,95955
2023-05-14T02:18:53.889Z,95951
2023-05-14T02:19:53.847Z,95956
2023-05-14T02:21:53.869Z,95952
2023-05-14T02:25:53.850Z,95950
2023-05-14T02:26:53.896Z,95951
2023-05-14T02:27:53.893Z,95953
2023-05-14T02:30:53.846Z,95948
2023-05-14T02:32:54.084Z,95944
2023-05-14T02:34:53.910Z,95944
2023-05-14T02:36:53.944Z,95941
2023-05-14T02:39:53.953Z,95940
2023-05-14T02:41:53.951Z,95940
2023-05-14T02:42:53.942Z,95939
2023-05-14T02:43:53.880Z,95936
2023-05-14T02:44:53.922Z,95940
2023-05-14T02:45:53.934Z,95940
2023-05-14T02:46:53.944Z,95938
2023-05-14T02:47:54.011Z,95943
2023-05-14T02:48:53.954Z,95942
2023-05-14T02:49:53.979Z,95938
2023-05-14T02:51:53.898Z,95939
2023-05-14T02:52:53.963Z,95936
2023-05-14T02:53:53.906Z,95939
2023-05-14T02:54:53.975Z,95938
2023-05-14T02:55:53.964Z,95938
2023-05-14T02:56:53.939Z,95939
2023-05-14T02:59:53.970Z,95938
2023-05-14T03:04:53.972Z,95941
2023-05-14T03:05:53.962Z,95937
2023-05-14T03:06:53.987Z,95941
2023-05-14T03:07:53.977Z,95936
2023-05-14T03:08:54.011Z,95938
2023-05-14T03:09:54.011Z,95938
2023-05-14T03:10:54.026Z,95935
2023-05-14T03:12:53.970Z,95934
2023-05-14T03:13:54.048Z,95936
2023-05-14T03:14:54.046Z,95932
2023-05-14T03:15:53.993Z,95933
2023-05-14T03:16:54.045Z,95934
2023-05-14T03:17:54.072Z,95932
2023-05-14T03:18:54.052Z,95929
2023-05-14T03:19:54.025Z,95929
2023-05-14T03:20:54.046Z,95930
2023-05-14T03:22:54.016Z,95928
2023-05-14T03:23:54.046Z,95929
2023-05-14T03:24:54.075Z,95927
2023-05-14T03:25:54.045Z,95927
2023-05-14T03:26:54.041Z,95925
2023-05-14T03:28:54.035Z,95926
2023-05-14T03:29:54.055Z,95925
2023-05-14T03:31:54.059Z,95928
2023-05-14T03:32:54.123Z,95925
2023-05-14T03:33:54.094Z,95927
2023-05-14T03:36:54.096Z,95928
2023-05-14T03:37:54.059Z,95926
2023-05-14T03:38:54.030Z,95926
2023-05-14T03:39:54.003Z,95924
2023-05-14T03:40:54.085Z,95925
2023-05-14T03:42:54.080Z,95923
2023-05-14T03:44:54.082Z,95926
2023-05-14T03:45:54.093Z,95926
2023-05-14T03:46:54.110Z,95926
2023-05-14T03:51:54.092Z,95926
2023-05-14T03:54:54.115Z,95925
2023-05-14T03:56:54.090Z,95923
2023-05-14T03:57:54.151Z,95921
2023-05-14T03:58:54.109Z,95920
2023-05-14T03:59:54.084Z,95920
2023-05-14T04:00:54.117Z,95922
2023-05-14T04:01:54.094Z,95923
2023-05-14T04:04:54.251Z,95924
2023-05-14T04:05:54.130Z,95921
2023-05-14T04:06:54.154Z,95920
2023-05-14T04:07:54.143Z,95922
2023-05-14T04:08:54.177Z,95926
2023-05-14T04:09:54.146Z,95926
2023-05-14T04:10:54.154Z,95927
2023-05-14T04:11:54.149Z,95931
2023-05-14T04:12:54.178Z,95929
2023-05-14T04:16:54.181Z,95925
2023-05-14T04:17:54.191Z,95925
2023-05-14T04:18:54.288Z,95931
2023-05-14T04:20:54.176Z,95927
2023-05-14T04:21:54.163Z,95929
2023-05-14T04:22:54.178Z,95931
2023-05-14T04:24:54.153Z,95929
2023-05-14T04:25:54.238Z,95927
2023-05-14T04:26:54.205Z,95928
2023-05-14T04:28:54.198Z,95930
2023-05-14T04:29:54.200Z,95929
2023-05-14T04:30:54.199Z,95929
2023-05-14T04:31:54.235Z,95932
2023-05-14T04:33:54.237Z,95931
2023-05-14T04:34:54.236Z,95934
2023-05-14T04:35:54.158Z,95932
2023-05-14T04:36:54.203Z,95934
2023-05-14T04:37:54.222Z,95931
2023-05-14T04:38:54.213Z,95935
2023-05-14T04:39:54.508Z,95934
2023-05-14T04:40:54.180Z,95935
2023-05-14T04:41:54.226Z,95934
2023-05-14T04:42:54.248Z,95936
2023-05-14T04:43:54.221Z,95932
2023-05-14T04:44:54.241Z,95931
2023-05-14T04:45:54.354Z,95931
2023-05-14T04:46:54.241Z,95931
2023-05-14T04:47:54.316Z,95933
2023-05-14T04:48:54.216Z,95933
2023-05-14T04:49:54.224Z,95932
2023-05-14T04:50:54.190Z,95932
2023-05-14T04:51:54.253Z,95933
2023-05-14T04:53:54.228Z,95936
2023-05-14T04:54:54.259Z,95934
2023-05-14T04:56:54.235Z,95936
2023-05-14T04:57:54.281Z,95935
2023-05-14T04:58:54.290Z,95935
2023-05-14T04:59:54.306Z,95935
2023-05-14T05:00:54.307Z,95933
2023-05-14T05:02:54.325Z,95934
2023-05-14T05:03:54.344Z,95932
2023-05-14T05:05:54.320Z,95933
2023-05-14T05:06:54.323Z,95933
2023-05-14T05:07:54.324Z,95934
2023-05-14T05:08:54.326Z,95932
2023-05-14T05:10:54.331Z,95938
2023-05-14T05:11:54.266Z,95938
2023-05-14T05:13:54.323Z,95937
2023-05-14T05:14:54.319Z,95939
2023-05-14T05:15:54.356Z,95936
2023-05-14T05:16:54.287Z,95936
2023-05-14T05:17:54.297Z,95938
2023-05-14T05:18:54.366Z,95935
2023-05-14T05:19:54.336Z,95934
2023-05-14T05:20:54.337Z,95937
2023-05-14T05:21:54.344Z,95935
2023-05-14T05:22:54.276Z,95935
2023-05-14T05:23:54.342Z,95936
2023-05-14T05:24:54.351Z,95934
2023-05-14T05:25:54.327Z,95934
2023-05-14T05:26:54.379Z,95934
2023-05-14T05:27:54.393Z,95935
2023-05-14T05:28:54.361Z,95937
2023-05-14T05:29:54.365Z,95937
2023-05-14T05:30:54.362Z,95937
2023-05-14T05:31:54.415Z,95938
2023-05-14T05:32:54.372Z,95939
2023-05-14T05:33:54.376Z,95940
2023-05-14T05:34:54.387Z,95940
2023-05-14T05:36:54.344Z,95941
2023-05-14T05:41:54.435Z,95934
2023-05-14T05:43:54.328Z,95936
2023-05-14T05:44:54.389Z,95934
2023-05-14T05:45:54.389Z,95933
2023-05-14T05:46:54.466Z,95936
2023-05-14T05:48:54.394Z,95934
2023-05-14T05:49:54.377Z,95934
2023-05-14T05:50:54.399Z,95934
2023-05-14T05:51:54.361Z,95933
2023-05-14T05:52:54.421Z,95934
2023-05-14T05:53:54.401Z,95934
2023-05-14T05:54:54.435Z,95928
2023-05-14T05:55:54.414Z,95928
2023-05-14T05:58:54.468Z,95932
2023-05-14T06:00:54.451Z,95933
2023-05-14T06:02:54.437Z,95929
2023-05-14T06:03:54.421Z,95931
2023-05-14T06:04:54.474Z,95931
2023-05-14T06:05:54.427Z,95928
2023-05-14T06:06:54.435Z,95924
2023-05-14T06:07:54.463Z,95926
2023-05-14T06:08:54.434Z,95928
2023-05-14T06:09:54.416Z,95928
2023-05-14T06:10:54.481Z,95927
2023-05-14T06:11:54.501Z,95932
2023-05-14T06:12:54.497Z,95931
2023-05-14T06:13:54.489Z,95931
2023-05-14T06:14:54.476Z,95930
2023-05-14T06:15:54.510Z,95929
2023-05-14T06:16:54.566Z,95928
2023-05-14T06:19:54.517Z,95935
2023-05-14T06:21:54.497Z,95940
2023-05-14T06:23:54.508Z,95936
2023-05-14T06:24:54.509Z,95939
2023-05-14T06:26:54.532Z,95941
2023-05-14T06:27:54.486Z,95938
2023-05-14T06:28:54.534Z,95936
2023-05-14T06:29:54.512Z,95937
2023-05-14T06:31:54.534Z,95938
2023-05-14T06:32:54.565Z,95937
2023-05-14T06:33:54.534Z,95936
2023-05-14T06:34:54.530Z,95933
2023-05-14T06:35:54.493Z,95933
2023-05-14T06:36:54.517Z,95935
2023-05-14T06:38:54.520Z,95934
2023-05-14T06:39:57.019Z,95931
2023-05-14T06:40:54.563Z,95932
2023-05-14T06:41:54.469Z,95932
2023-05-14T06:42:54.536Z,95930
2023-05-14T06:43:54.526Z,95930
2023-05-14T06:44:54.537Z,95932
2023-05-14T06:45:54.555Z,95932
2023-05-14T06:46:54.568Z,95933
2023-05-14T06:47:54.642Z,95935
2023-05-14T06:48:55.303Z,95933
2023-05-14T06:49:54.580Z,95929
2023-05-14T06:50:54.570Z,95931
2023-05-14T06:51:54.503Z,95931
2023-05-14T06:52:54.584Z,95934
2023-05-14T06:53:54.580Z,95932
2023-05-14T06:55:54.546Z,95932
2023-05-14T06:56:54.533Z,95935
2023-05-14T06:57:54.592Z,95934
2023-05-14T06:58:54.560Z,95940
2023-05-14T06:59:54.635Z,95939
2023-05-14T07:00:54.596Z,95935
2023-05-14T07:01:54.559Z,95939
2023-05-14T07:02:54.656Z,95938
2023-05-14T07:03:54.640Z,95936
2023-05-14T07:04:54.544Z,95937
2023-05-14T07:05:54.591Z,95940
2023-05-14T07:06:54.615Z,95938
2023-05-14T07:07:54.581Z,95940
2023-05-14T07:09:54.568Z,95940
2023-05-14T07:10:54.644Z,95938
2023-05-14T07:12:54.655Z,95939
2023-05-14T07:13:54.639Z,95940
2023-05-14T07:15:54.636Z,95935
2023-05-14T07:16:54.691Z,95935
2023-05-14T07:19:54.618Z,95931
2023-05-14T07:20:54.662Z,95932
2023-05-14T07:21:54.641Z,95932
2023-05-14T07:23:54.644Z,95936
2023-05-14T07:24:54.655Z,95930
2023-05-14T07:25:54.626Z,95929
2023-05-14T07:26:54.632Z,95932
2023-05-14T07:27:54.600Z,95930
2023-05-14T07:28:54.638Z,95931
2023-05-14T07:29:54.666Z,95924
2023-05-14T07:30:54.675Z,95928
2023-05-14T07:31:54.707Z,95926
2023-05-14T07:32:54.719Z,95930
2023-05-14T07:33:54.654Z,95926
2023-05-14T07:34:54.692Z,95925
2023-05-14T07:35:54.643Z,95925
2023-05-14T07:36:54.669Z,95922
2023-05-14T07:37:54.687Z,95926
2023-05-14T07:38:54.699Z,95926
2023-05-14T07:39:54.665Z,95922
2023-05-14T07:40:54.654Z,95925
2023-05-14T07:41:54.723Z,95924
2023-05-14T07:42:54.700Z,95925
2023-05-14T07:43:54.662Z,95925
2023-05-14T07:44:54.966Z,95926
2023-05-14T07:45:54.733Z,95926
2023-05-14T07:46:54.748Z,95924
2023-05-14T07:47:54.824Z,95922
2023-05-14T07:48:54.652Z,95922
2023-05-14T07:49:54.722Z,95921
2023-05-14T07:50:54.666Z,95922
2023-05-14T07:51:54.736Z,95920
2023-05-14T07:52:54.730Z,95920
2023-05-14T07:53:54.679Z,95916
2023-05-14T07:54:54.727Z,95917
2023-05-14T07:55:54.762Z,95915
2023-05-14T07:58:54.772Z,95916
2023-05-14T08:01:54.761Z,95917
2023-05-14T08:02:54.955Z,95916
2023-05-14T08:03:54.907Z,95918
2023-05-14T08:04:54.742Z,95921
2023-05-14T08:05:54.761Z,95921
2023-05-14T08:06:54.697Z,95917
2023-05-14T08:07:54.741Z,95919
2023-05-14T08:08:54.788Z,95917
2023-05-14T08:09:54.726Z,95917
2023-05-14T08:10:54.792Z,95918
2023-05-14T08:11:54.715Z,95918
2023-05-14T08:12:54.819Z,95917
2023-05-14T08:13:54.774Z,95916
2023-05-14T08:14:54.742Z,95915
2023-05-14T08:15:54.780Z,95913
2023-05-14T08:16:54.836Z,95913
2023-05-14T08:17:54.980Z,95914
2023-05-14T08:18:54.902Z,95913
2023-05-14T08:19:54.751Z,95913
2023-05-14T08:20:54.808Z,95913
2023-05-14T08:21:54.805Z,95910
2023-05-14T08:22:54.748Z,95913
2023-05-14T08:23:54.755Z,95911
2023-05-14T08:24:54.797Z,95911
2023-05-14T08:25:54.825Z,95910
2023-05-14T08:27:54.772Z,95909
2023-05-14T08:28:54.827Z,95913
2023-05-14T08:29:54.806Z,95910
2023-05-14T08:30:54.859Z,95909
2023-05-14T08:31:54.787Z,95912
2023-05-14T08:32:54.857Z,95913
2023-05-14T08:33:54.836Z,95911
2023-05-14T08:34:54.851Z,95914
2023-05-14T08:35:54.786Z,95914
2023-05-14T08:36:54.813Z,95912
2023-05-14T08:37:54.852Z,95915
2023-05-14T08:38:54.850Z,95911
2023-05-14T08:39:54.815Z,95909
2023-05-14T08:40:54.834Z,95908
2023-05-14T08:41:54.832Z,95907
2023-05-14T08:42:54.833Z,95904
2023-05-14T08:43:54.854Z,95908
2023-05-14T08:44:54.844Z,95906
2023-05-14T08:45:54.939Z,95906
2023-05-14T08:46:54.862Z,95908
2023-05-14T08:47:54.937Z,95903
2023-05-14T08:48:54.839Z,95903
2023-05-14T08:49:54.867Z,95902
2023-05-14T08:50:54.879Z,95902
2023-05-14T08:51:54.867Z,95899
2023-05-14T08:52:54.858Z,95898
2023-05-14T08:53:54.859Z,95898
2023-05-14T08:54:54.899Z,95896
2023-05-14T08:55:54.865Z,95898
2023-05-14T08:56:54.842Z,95895
2023-05-14T08:57:54.883Z,95896
2023-05-14T08:58:54.916Z,95890
2023-05-14T08:59:54.864Z,95884
2023-05-14T09:00:54.898Z,95890
2023-05-14T09:01:54.877Z,95890
2023-05-14T09:02:54.949Z,95889
2023-05-14T09:03:54.921Z,95885
2023-05-14T09:04:54.872Z,95885
2023-05-14T09:05:54.906Z,95885
2023-05-14T09:06:54.867Z,95880
2023-05-14T09:07:54.934Z,95886
2023-05-14T09:08:54.924Z,95881
2023-05-14T09:09:54.897Z,95883
2023-05-14T09:10:54.902Z,95884
2023-05-14T09:11:54.865Z,95878
2023-05-14T09:12:54.902Z,95878
2023-05-14T09:13:54.917Z,95877
2023-05-14T09:14:54.873Z,95873
2023-05-14T09:15:54.988Z,95879
2023-05-14T09:16:54.929Z,95880
2023-05-14T09:17:55.014Z,95882
2023-05-14T09:18:54.924Z,95882
2023-05-14T09:19:54.910Z,95878
2023-05-14T09:20:54.991Z,95877
2023-05-14T09:21:54.937Z,95876
2023-05-14T09:22:54.954Z,95877
2023-05-14T09:23:54.953Z,95876
2023-05-14T09:24:54.930Z,95879
2023-05-14T09:25:54.983Z,95878
2023-05-14T09:26:54.993Z,95882
2023-05-14T09:27:55.691Z,95879
2023-05-14T09:28:54.985Z,95880
2023-05-14T09:29:54.979Z,95877
2023-05-14T09:30:54.991Z,95875
2023-05-14T09:31:55.034Z,95873
2023-05-14T09:32:54.972Z,95875
2023-05-14T09:33:54.977Z,95872
2023-05-14T09:34:54.987Z,95868
2023-05-14T09:35:56.428Z,95870
2023-05-14T09:36:54.974Z,95868
2023-05-14T09:37:54.968Z,95868
2023-05-14T09:38:55.024Z,95867
2023-05-14T09:39:54.959Z,95867
2023-05-14T09:40:54.961Z,95869
2023-05-14T09:41:54.994Z,95866
2023-05-14T09:43:55.015Z,95864
2023-05-14T09:44:55.014Z,95865
2023-05-14T09:45:55.005Z,95863
2023-05-14T09:46:55.048Z,95861
2023-05-14T09:47:55.113Z,95864
2023-05-14T09:48:55.013Z,95863
2023-05-14T09:49:55.031Z,95861
2023-05-14T09:50:54.982Z,95861
2023-05-14T09:51:55.038Z,95861
2023-05-14T09:52:55.030Z,95864
2023-05-14T09:53:54.997Z,95869
2023-05-14T09:54:55.007Z,95867
2023-05-14T09:55:55.022Z,95865
2023-05-14T09:56:55.722Z,95869
2023-05-14T09:57:55.026Z,95870
2023-05-14T09:58:55.033Z,95872
2023-05-14T09:59:55.016Z,95872
2023-05-14T10:00:55.072Z,95871
2023-05-14T10:01:55.037Z,95869
2023-05-14T10:02:55.072Z,95873
2023-05-14T10:03:55.071Z,95874
2023-05-14T10:04:55.065Z,95874
2023-05-14T10:06:55.027Z,95875
2023-05-14T10:07:55.059Z,95872
2023-05-14T10:08:55.130Z,95872
2023-05-14T10:10:55.072Z,95872
2023-05-14T10:12:55.069Z,95872
2023-05-14T10:13:55.052Z,95872
2023-05-14T10:14:55.115Z,95874
2023-05-14T10:15:55.097Z,95871
2023-05-14T10:16:55.139Z,95869
2023-05-14T10:17:55.131Z,95870
2023-05-14T10:18:57.153Z,95867
2023-05-14T10:19:55.076Z,95869
2023-05-14T10:20:55.092Z,95866
2023-05-14T10:21:55.126Z,95865
2023-05-14T10:22:55.150Z,95864
2023-05-14T10:23:55.105Z,95862
2023-05-14T10:24:55.072Z,95862
2023-05-14T10:25:55.154Z,95862
2023-05-14T10:26:55.136Z,95865
2023-05-14T10:27:55.148Z,95862
2023-05-14T10:28:55.126Z,95863
2023-05-14T10:29:55.121Z,95861
2023-05-14T10:30:55.180Z,95860
2023-05-14T10:33:55.158Z,95856
2023-05-14T10:34:55.116Z,95857
2023-05-14T10:35:55.173Z,95857
2023-05-14T10:36:55.116Z,95857
2023-05-14T10:37:55.091Z,95856
2023-05-14T10:38:55.112Z,95855
2023-05-14T10:39:55.124Z,95857
2023-05-14T10:40:55.196Z,95850
2023-05-14T10:41:55.152Z,95854
2023-05-14T10:42:55.127Z,95853
2023-05-14T10:43:55.149Z,95853
2023-05-14T10:44:55.108Z,95853
2023-05-14T10:46:55.180Z,95856
2023-05-14T10:47:55.154Z,95856
2023-05-14T10:48:55.156Z,95851
2023-05-14T10:49:55.151Z,95851
2023-05-14T10:50:55.224Z,95847
2023-05-14T10:51:55.166Z,95845
2023-05-14T10:52:55.217Z,95846
2023-05-14T10:53:55.179Z,95844
2023-05-14T10:54:55.193Z,95846
2023-05-14T10:55:55.140Z,95846
2023-05-14T10:56:55.194Z,95843
2023-05-14T10:57:55.154Z,95843
2023-05-14T10:58:55.173Z,95837
2023-05-14T10:59:55.241Z,95833
2023-05-14T11:00:55.220Z,95834
2023-05-14T11:01:55.245Z,95839
2023-05-14T11:02:55.251Z,95832
2023-05-14T11:03:55.207Z,95830
2023-05-14T11:04:55.226Z,95832
2023-05-14T11:05:55.202Z,95832
2023-05-14T11:06:55.226Z,95831
2023-05-14T11:07:55.221Z,95833
2023-05-14T11:08:55.183Z,95833
2023-05-14T11:09:55.246Z,95825
2023-05-14T11:10:55.238Z,95825
2023-05-14T11:11:55.205Z,95821
2023-05-14T11:12:55.204Z,95821
2023-05-14T11:13:55.259Z,95821
2023-05-14T11:14:55.283Z,95820
2023-05-14T11:15:55.256Z,95822
2023-05-14T11:16:55.269Z,95822
2023-05-14T11:17:55.351Z,95815
2023-05-14T11:18:55.312Z,95813
2023-05-14T11:19:55.213Z,95813
2023-05-14T11:21:55.242Z,95814
2023-05-14T11:22:55.265Z,95814
2023-05-14T11:23:55.267Z,95816
2023-05-14T11:24:55.247Z,95816
2023-05-14T11:25:55.334Z,95812
2023-05-14T11:26:55.300Z,95814
2023-05-14T11:27:55.286Z,95814
2023-05-14T11:28:55.264Z,95812
2023-05-14T11:29:55.241Z,95809
2023-05-14T11:30:55.262Z,95810
2023-05-14T11:31:55.315Z,95810
2023-05-14T11:32:55.372Z,95810
2023-05-14T11:33:55.257Z,95810
2023-05-14T11:34:55.270Z,95808
2023-05-14T11:35:55.281Z,95806
2023-05-14T11:36:55.249Z,95810
2023-05-14T11:38:55.299Z,95805
2023-05-14T11:39:55.350Z,95803
2023-05-14T11:40:55.306Z,95800
2023-05-14T11:41:55.325Z,95799
2023-05-14T11:42:55.293Z,95799
2023-05-14T11:43:55.345Z,95800
2023-05-14T11:44:55.332Z,95800
2023-05-14T11:46:55.324Z,95802
2023-05-14T11:47:55.330Z,95800
2023-05-14T11:48:55.329Z,95798
2023-05-14T11:49:55.356Z,95793
2023-05-14T11:50:55.279Z,95793
2023-05-14T11:51:55.316Z,95794
2023-05-14T11:52:55.358Z,95795
2023-05-14T11:53:55.336Z,95791
2023-05-14T11:54:55.362Z,95789
2023-05-14T11:55:55.298Z,95789
2023-05-14T11:56:55.303Z,95794
2023-05-14T11:57:55.326Z,95792
2023-05-14T11:58:55.322Z,95791
2023-05-14T11:59:55.358Z,95785
2023-05-14T12:00:55.363Z,95789
2023-05-14T12:01:55.328Z,95789
2023-05-14T12:03:55.427Z,95792
2023-05-14T12:04:55.505Z,95792
2023-05-14T12:05:55.392Z,95792
2023-05-14T12:06:55.345Z,95792
2023-05-14T12:08:55.377Z,95791
2023-05-14T12:09:55.397Z,95790
2023-05-14T12:10:55.394Z,95790
2023-05-14T12:11:55.358Z,95789
2023-05-14T12:12:55.397Z,95788
2023-05-14T12:13:55.364Z,95789
2023-05-14T12:14:55.386Z,95795
2023-05-14T12:15:55.457Z,95788
2023-05-14T12:16:55.390Z,95791
2023-05-14T12:17:55.416Z,95792
2023-05-14T12:18:55.420Z,95792
2023-05-14T12:19:55.402Z,95797
2023-05-14T12:20:55.394Z,95801
2023-05-14T12:21:55.350Z,95797
2023-05-14T12:22:55.387Z,95798
2023-05-14T12:23:55.396Z,95798
2023-05-14T12:24:55.407Z,95796
2023-05-14T12:25:55.409Z,95801
2023-05-14T12:26:55.442Z,95801
2023-05-14T12:27:55.401Z,95800
2023-05-14T12:28:55.407Z,95799
2023-05-14T12:29:55.396Z,95800
2023-05-14T12:30:55.433Z,95799
2023-05-14T12:31:55.472Z,95796
2023-05-14T12:32:55.444Z,95802
2023-05-14T12:33:55.434Z,95801
2023-05-14T12:34:55.417Z,95801
2023-05-14T12:35:55.434Z,95802
2023-05-14T12:36:55.481Z,95796
2023-05-14T12:37:55.385Z,95796
2023-05-14T12:38:55.442Z,95797
2023-05-14T12:40:55.441Z,95795
2023-05-14T12:41:55.454Z,95795
2023-05-14T12:42:56.678Z,95800
2023-05-14T12:43:55.489Z,95794
2023-05-14T12:44:55.478Z,95791
2023-05-14T12:46:55.550Z,95795
2023-05-14T12:47:55.486Z,95793
2023-05-14T12:49:55.458Z,95790
2023-05-14T12:50:55.457Z,95790
2023-05-14T12:52:04.493Z,95792
2023-05-14T12:52:55.461Z,95791
2023-05-14T12:55:55.474Z,95791
2023-05-14T12:56:55.501Z,95786
2023-05-14T12:57:55.497Z,95789
2023-05-14T12:58:55.444Z,95783
2023-05-14T12:59:55.508Z,95786
2023-05-14T13:02:55.561Z,95788
2023-05-14T13:03:55.519Z,95788
2023-05-14T13:04:55.544Z,95784
2023-05-14T13:05:55.498Z,95781
2023-05-14T13:06:55.501Z,95776
2023-05-14T13:07:55.565Z,95776
2023-05-14T13:08:55.473Z,95777
2023-05-14T13:09:55.533Z,95771
2023-05-14T13:10:55.526Z,95774
2023-05-14T13:11:55.498Z,95774
2023-05-14T13:12:55.566Z,95768
2023-05-14T13:13:55.520Z,95771
2023-05-14T13:14:55.528Z,95772
2023-05-14T13:15:55.525Z,95771
2023-05-14T13:16:55.610Z,95769
2023-05-14T13:17:55.644Z,95768
2023-05-14T13:18:55.601Z,95766
2023-05-14T13:19:55.571Z,95761
2023-05-14T13:20:55.559Z,95761
2023-05-14T13:21:55.501Z,95765
2023-05-14T13:22:55.579Z,95758
2023-05-14T13:23:55.576Z,95759
2023-05-14T13:24:55.559Z,95756
2023-05-14T13:25:55.546Z,95756
2023-05-14T13:26:55.544Z,95755
2023-05-14T13:27:55.578Z,95756
2023-05-14T13:28:55.518Z,95756
2023-05-14T13:29:55.562Z,95757
2023-05-14T13:30:55.560Z,95756
2023-05-14T13:31:55.550Z,95752
2023-05-14T13:32:55.635Z,95752
2023-05-14T13:33:55.603Z,95756
2023-05-14T13:34:55.589Z,95757
2023-05-14T13:35:55.631Z,95757
2023-05-14T13:36:55.594Z,95752
2023-05-14T13:37:55.578Z,95748
2023-05-14T13:38:55.554Z,95749
2023-05-14T13:39:55.578Z,95749
2023-05-14T13:40:55.602Z,95745
2023-05-14T13:41:55.626Z,95745
2023-05-14T13:44:55.563Z,95749
2023-05-14T13:45:55.634Z,95749
2023-05-14T13:46:55.672Z,95754
2023-05-14T13:47:55.666Z,95754
2023-05-14T13:48:55.642Z,95749
2023-05-14T13:49:55.626Z,95751
2023-05-14T13:50:55.606Z,95751
2023-05-14T13:51:55.616Z,95752
2023-05-14T13:52:55.606Z,95752
2023-05-14T13:53:55.991Z,95753
2023-05-14T13:54:55.614Z,95752
2023-05-14T13:55:55.614Z,95753
2023-05-14T13:56:55.630Z,95756
2023-05-14T13:57:55.616Z,95756
2023-05-14T13:58:55.673Z,95755
2023-05-14T14:00:55.637Z,95749
2023-05-14T14:01:55.702Z,95752
2023-05-14T14:02:55.729Z,95752
2023-05-14T14:03:55.691Z,95752
2023-05-14T14:04:55.680Z,95753
2023-05-14T14:05:55.676Z,95753
2023-05-14T14:06:55.657Z,95754
2023-05-14T14:08:01.148Z,95754
2023-05-14T14:08:55.691Z,95751
2023-05-14T14:09:55.695Z,95751
2023-05-14T14:10:55.831Z,95751
2023-05-14T14:11:55.686Z,95748
2023-05-14T14:12:55.698Z,95746
2023-05-14T14:13:55.704Z,95743
2023-05-14T14:14:55.686Z,95745
2023-05-14T14:15:55.701Z,95745
2023-05-14T14:16:55.702Z,95742
2023-05-14T14:17:55.701Z,95741
2023-05-14T14:18:55.641Z,95741
2023-05-14T14:19:55.732Z,95740
2023-05-14T14:20:55.719Z,95733
2023-05-14T14:21:55.657Z,95733
2023-05-14T14:23:55.695Z,95736
2023-05-14T14:24:55.671Z,95736
2023-05-14T14:25:55.762Z,95735
2023-05-14T14:26:55.676Z,95735
2023-05-14T14:27:55.754Z,95731
2023-05-14T14:28:55.706Z,95731
2023-05-14T14:29:55.694Z,95729
2023-05-14T14:30:55.735Z,95727
2023-05-14T14:31:55.786Z,95727
2023-05-14T14:32:55.765Z,95731
2023-05-14T14:33:55.786Z,95725
2023-05-14T14:34:55.724Z,95726
2023-05-14T14:35:55.757Z,95725
2023-05-14T14:36:55.703Z,95725
2023-05-14T14:37:55.755Z,95725
2023-05-14T14:38:55.753Z,95728
2023-05-14T14:39:55.749Z,95728
2023-05-14T14:40:55.746Z,95726
2023-05-14T14:41:55.756Z,95726
2023-05-14T14:42:55.776Z,95725
2023-05-14T14:43:55.737Z,95726
2023-05-14T14:44:55.736Z,95726
2023-05-14T14:45:55.760Z,95723
2023-05-14T14:46:55.785Z,95730
2023-05-14T14:47:55.789Z,95730
2023-05-14T14:48:55.757Z,95740
2023-05-14T14:49:55.751Z,95740
2023-05-14T14:50:55.803Z,95743
2023-05-14T14:51:55.765Z,95749
2023-05-14T14:52:55.807Z,95750
2023-05-14T14:53:55.741Z,95750
2023-05-14T14:54:55.783Z,95747
2023-05-14T14:55:55.802Z,95754
2023-05-14T14:56:55.808Z,95746
2023-05-14T14:57:55.738Z,95746
2023-05-14T14:58:55.802Z,95749
2023-05-14T14:59:55.798Z,95740
2023-05-14T15:00:55.868Z,95733
2023-05-14T15:01:55.825Z,95730
2023-05-14T15:02:55.835Z,95730
2023-05-14T15:03:55.833Z,95733
2023-05-14T15:04:55.877Z,95734
2023-05-14T15:05:55.833Z,95737
2023-05-14T15:06:55.853Z,95736
2023-05-14T15:07:55.818Z,95736
2023-05-14T15:08:55.871Z,95735
2023-05-14T15:09:55.823Z,95735
2023-05-14T15:10:55.795Z,95735
2023-05-14T15:11:55.812Z,95739
2023-05-14T15:12:55.856Z,95737
2023-05-14T15:13:55.828Z,95735